Latest Weather Observations for Ulladulla

IDN60901

Issued at 9:51 pm EDT Monday 16 January 2017 (issued every 10 minutes, with the page automatically refreshed every 10 minutes)

About weather observations | Map of Canberra area stations | Latest observations for Canberra area | Other Formats
Station Details ID: 069138 Name: ULLADULLA AWS Lat: -35.36 Lon: 150.48 Height: 35.7 m
Data from the previous 72 hours. | See also: Recent months at Ulladulla
Date/Time
EDT
Temp
°C
App
Temp
°C
Dew
Point
°C
Rel
Hum
%
Delta-T
°C
Wind Press
QNH
hPa
Press
MSL
hPa
Rain since
9am
mm
Dir  Spd
km/h
Gust
km/h
Spd
kts
Gust
kts
16/09:30pm 22.4 25.3 19.8 85 1.7 NNW 4 7 2 4 1014.1 1014.0 0.0
16/09:00pm 22.6 24.5 19.8 84 1.8 NE 9 15 5 8 1013.9 1013.8 0.0
16/08:30pm 22.8 24.7 19.8 83 1.9 NNE 9 17 5 9 1013.5 1013.4 0.0
16/08:00pm 23.2 23.2 19.8 81 2.2 NE 19 28 10 15 1013.1 1013.0 0.0
16/07:30pm 23.4 23.3 19.5 79 2.5 NE 19 28 10 15 1012.9 1012.8 0.0
16/07:00pm 23.7 23.6 19.6 78 2.6 NE 19 28 10 15 1012.5 1012.4 0.0
16/06:30pm 24.1 24.4 19.6 76 2.9 NE 17 24 9 13 1012.0 1011.9 0.0
16/06:00pm 24.5 26.0 19.8 75 3.0 NNE 11 24 6 13 1011.8 1011.7 0.0
16/05:30pm 24.9 26.5 19.9 74 3.2 N 11 22 6 12 1011.8 1011.7 0.0
16/05:00pm 24.8 26.0 19.8 74 3.2 NE 13 22 7 12 1011.9 1011.8 0.0
16/04:30pm 25.0 26.4 20.3 75 3.1 NNE 13 22 7 12 1012.1 1012.0 0.0
16/04:00pm 24.7 24.7 19.8 74 3.2 NE 19 30 10 16 1012.3 1012.2 0.0
16/03:30pm 24.8 24.8 19.8 74 3.2 NE 19 32 10 17 1012.5 1012.4 0.0
16/03:00pm 24.6 22.9 19.7 74 3.2 NE 28 39 15 21 1012.6 1012.5 0.0
16/02:30pm 24.4 21.9 19.7 75 3.0 NE 32 41 17 22 1012.8 1012.7 0.0
16/02:00pm 24.5 22.3 19.6 74 3.2 NNE 30 39 16 21 1013.1 1013.0 0.0
16/01:30pm 24.6 24.9 20.5 78 2.7 NE 19 30 10 16 1013.4 1013.3 0.0
16/01:00pm 24.7 25.2 20.0 75 3.0 NE 17 24 9 13 1013.6 1013.5 0.0
16/12:30pm 25.5 27.2 21.0 76 3.0 NE 13 24 7 13 1013.8 1013.7 0.0
16/12:00pm 24.5 25.2 19.6 74 3.2 NE 15 24 8 13 1014.2 1014.1 0.0
16/11:30am - - - - - NNE 15 24 8 13 1014.5 1014.4 0.0
16/11:00am 23.0 22.5 19.0 78 2.5 NNE 20 26 11 14 1015.0 1014.9 0.0
16/10:30am - - - - - NNE 19 24 10 13 1015.3 1015.2 0.0
16/10:00am - - - - - NE 20 24 11 13 1015.6 1015.5 0.0
16/09:30am - - - - - NE 13 19 7 10 1015.8 1015.7 0.0
16/09:00am - - - - - NNE 7 15 4 8 1016.1 1016.0 1.2
16/08:30am - - - - - N 9 15 5 8 1016.3 1016.2 1.2
16/08:00am - - - - - N 6 9 3 5 1016.1 1016.0 1.2
16/07:30am - - - - - N 2 4 1 2 1016.2 1016.1 1.2
16/07:00am - - - - - CALM 0 0 0 0 1016.1 1016.0 1.2
16/06:30am - - - - - CALM 0 0 0 0 1016.0 1015.9 1.2
16/06:00am - - - - - CALM 0 2 0 1 1015.7 1015.6 1.2
16/05:30am - - - - - WSW 4 7 2 4 1015.7 1015.6 1.2
16/05:00am - - - - - W 2 6 1 3 1015.7 1015.6 1.2
16/04:30am - - - - - W 2 6 1 3 1015.7 1015.6 1.2
16/04:00am - - - - - W 2 4 1 2 1015.8 1015.7 1.2
16/03:30am - - - - - W 2 4 1 2 1016.1 1016.0 1.2
16/03:00am 18.4 20.6 18.4 100 0.0 WNW 4 6 2 3 1016.4 1016.3 1.2
16/02:30am 18.4 20.2 18.4 100 0.0 WNW 6 9 3 5 1016.5 1016.4 1.2
16/02:00am 18.6 21.7 18.6 100 0.0 CALM 0 2 0 1 1016.9 1016.8 1.2
16/01:30am 18.7 21.8 18.7 100 0.0 CALM 0 0 0 0 1017.3 1017.2 1.2
16/01:00am 18.6 21.3 18.6 100 0.0 WNW 2 2 1 1 1017.6 1017.5 1.2
16/12:30am 18.5 21.1 18.5 100 0.0 W 2 4 1 2 1017.9 1017.8 1.2
16/12:00am 18.4 20.6 18.4 100 0.0 W 4 6 2 3 1018.0 1017.9 1.2
 
Date/Time
EDT
Temp
°C
App
Temp
°C
Dew
Point
°C
Rel
Hum
%
Delta-T
°C
Wind Press
QNH
hPa
Press
MSL
hPa
Rain since
9am
mm
Dir  Spd
km/h
Gust
km/h
Spd
kts
Gust
kts
15/11:30pm 18.5 20.7 18.3 99 0.1 W 4 7 2 4 1018.0 1017.9 1.0
15/11:00pm 18.4 20.1 18.1 98 0.2 WSW 6 7 3 4 1018.0 1017.9 1.0
15/10:30pm 18.5 21.0 18.2 98 0.2 WSW 2 6 1 3 1018.0 1017.9 1.0
15/10:00pm 18.5 20.5 17.9 96 0.4 W 4 7 2 4 1017.8 1017.7 0.8
15/09:30pm 18.5 20.1 16.8 90 1.0 WSW 4 7 2 4 1017.7 1017.6 0.8
15/09:00pm 18.7 19.7 16.3 86 1.4 S 6 7 3 4 1017.6 1017.5 0.8
15/08:30pm 19.0 19.8 15.9 82 1.8 SSE 6 7 3 4 1017.5 1017.4 0.8
15/08:00pm 19.5 20.7 15.8 79 2.2 ESE 4 7 2 4 1017.4 1017.3 0.8
15/07:30pm 19.4 21.3 15.7 79 2.2 CALM 0 6 0 3 1017.2 1017.1 0.8
15/07:00pm 19.5 20.6 15.6 78 2.3 E 4 7 2 4 1016.9 1016.8 0.8
15/06:30pm 19.8 20.5 15.7 77 2.4 ENE 6 11 3 6 1016.6 1016.5 0.8
15/06:00pm 19.9 20.6 15.5 76 2.6 E 6 11 3 6 1016.5 1016.4 0.8
15/05:30pm 20.3 20.4 15.5 74 2.8 E 9 17 5 9 1016.4 1016.3 0.8
15/05:00pm 20.5 20.7 15.7 74 2.9 E 9 15 5 8 1016.3 1016.2 0.8
15/04:30pm 20.9 21.6 15.7 72 3.1 ENE 6 13 3 7 1016.4 1016.3 0.8
15/04:00pm 20.9 21.1 15.7 72 3.1 ENE 9 15 5 8 1016.6 1016.5 0.8
15/03:30pm 21.0 21.4 15.3 70 3.4 ENE 7 15 4 8 1016.7 1016.6 0.8
15/03:00pm 21.1 21.7 15.4 70 3.4 E 6 9 3 5 1017.0 1016.9 0.8
15/02:30pm 21.2 21.9 15.5 70 3.4 E 6 9 3 5 1017.1 1017.0 0.8
15/02:00pm 21.1 21.7 15.4 70 3.4 ESE 6 11 3 6 1017.0 1016.9 0.8
15/01:30pm 21.1 21.6 15.6 71 3.3 SE 7 13 4 7 1017.0 1016.9 0.8
15/01:00pm 20.9 21.9 16.3 75 2.8 SE 6 9 3 5 1016.9 1016.8 0.8
15/12:30pm 20.4 21.6 16.0 76 2.6 S 4 7 2 4 1017.4 1017.3 0.8
15/12:00pm 20.3 21.2 16.7 80 2.2 S 7 11 4 6 1017.3 1017.2 0.8
15/11:30am 20.0 21.1 18.1 89 1.2 SSE 9 15 5 8 1017.2 1017.1 0.8
15/11:00am 19.1 20.2 17.9 93 0.7 SSE 9 15 5 8 1017.1 1017.0 0.8
15/10:30am 18.9 20.0 18.9 100 0.0 SSE 11 17 6 9 1016.9 1016.8 0.8
15/10:00am 18.6 19.2 18.6 100 0.0 SSE 13 17 7 9 1016.8 1016.7 0.8
15/09:30am 18.3 18.8 18.3 100 0.0 S 13 17 7 9 1016.7 1016.6 0.6
15/09:00am 18.6 18.8 18.6 100 0.0 SSE 15 24 8 13 1016.3 1016.2 3.2
15/08:30am 18.6 18.8 18.6 100 0.0 SSE 15 24 8 13 1015.8 1015.7 2.6
15/08:00am 18.6 19.1 18.4 99 0.1 SSE 13 22 7 12 1015.6 1015.5 2.2
15/07:30am 19.3 20.9 19.1 99 0.1 SSE 9 15 5 8 1014.9 1014.8 0.8
15/07:00am 19.7 21.2 17.7 88 1.2 E 6 9 3 5 1014.5 1014.4 0.4
15/06:30am 20.0 21.7 17.2 84 1.7 E 4 9 2 5 1013.9 1013.8 0.0
15/06:00am 19.9 21.6 16.2 79 2.2 NW 2 4 1 2 1013.4 1013.3 0.0
15/05:30am 19.9 21.2 16.2 79 2.2 NW 4 6 2 3 1013.1 1013.0 0.0
15/05:00am 19.7 20.6 16.2 80 2.1 NNW 6 9 3 5 1012.8 1012.7 0.0
15/04:30am 19.4 20.3 16.1 81 2.0 NNW 6 9 3 5 1012.4 1012.3 0.0
15/04:00am 19.8 21.2 16.3 80 2.1 NNW 4 7 2 4 1012.2 1012.1 0.0
15/03:30am 19.9 21.2 16.2 79 2.2 NNW 4 6 2 3 1012.3 1012.2 0.0
15/03:00am 20.1 20.9 15.9 77 2.5 NNW 6 7 3 4 1012.2 1012.1 0.0
15/02:30am - - - - - NNW 6 9 3 5 1012.4 1012.3 0.0
15/02:00am - - - - - NNW 7 9 4 5 1012.6 1012.5 0.0
15/01:30am - - - - - NNW 6 7 3 4 1013.0 1012.9 0.0
15/01:00am - - - - - NNW 4 7 2 4 1013.0 1012.9 0.0
15/12:30am - - - - - NNW 7 11 4 6 1013.0 1012.9 0.0
15/12:00am - - - - - N 9 15 5 8 1012.8 1012.7 0.0
 
Date/Time
EDT
Temp
°C
App
Temp
°C
Dew
Point
°C
Rel
Hum
%
Delta-T
°C
Wind Press
QNH
hPa
Press
MSL
hPa
Rain since
9am
mm
Dir  Spd
km/h
Gust
km/h
Spd
kts
Gust
kts
14/11:30pm - - - - - NNW 9 19 5 10 1012.4 1012.3 0.0
14/11:00pm - - - - - N 9 19 5 10 1012.2 1012.1 0.0
14/10:30pm 21.9 22.5 16.8 73 3.1 NE 9 15 5 8 1011.8 1011.7 0.0
14/10:00pm 22.0 22.6 16.7 72 3.2 ENE 9 22 5 12 1011.4 1011.3 0.0
14/09:30pm 22.0 22.9 16.5 71 3.3 E 7 13 4 7 1010.9 1010.8 0.0
14/09:00pm 22.1 22.6 16.6 71 3.4 E 9 15 5 8 1010.4 1010.3 0.0
14/08:30pm 22.1 22.4 16.1 69 3.6 E 9 17 5 9 1009.7 1009.6 0.0
14/08:00pm 22.2 22.2 16.2 69 3.6 ESE 11 24 6 13 1008.9 1008.8 0.0
14/07:30pm 22.1 21.9 16.6 71 3.4 ESE 13 22 7 12 1008.2 1008.1 0.0
14/07:00pm 22.2 22.3 16.5 70 3.5 ESE 11 24 6 13 1007.5 1007.4 0.0
14/06:30pm 22.3 22.6 17.0 72 3.3 ESE 11 20 6 11 1006.8 1006.7 0.0
14/06:00pm 22.2 22.2 17.1 73 3.1 ESE 13 24 7 13 1006.2 1006.0 0.0
14/05:30pm 22.6 22.4 17.7 74 3.0 ESE 15 28 8 15 1005.5 1005.3 0.0
14/05:00pm 23.1 23.8 18.0 73 3.2 E 11 19 6 10 1005.2 1005.0 0.0
14/04:30pm 23.6 24.5 18.5 73 3.2 E 11 19 6 10 1005.1 1004.9 0.0
14/04:00pm 23.4 24.3 18.5 74 3.1 ENE 11 20 6 11 1005.0 1004.8 0.0
14/03:30pm 23.6 25.3 18.5 73 3.2 ENE 7 17 4 9 1004.9 1004.7 0.0
14/03:00pm 24.4 25.0 18.6 70 3.7 E 13 20 7 11 1004.8 1004.6 0.0
14/02:30pm 25.4 27.1 19.3 69 3.9 ENE 9 19 5 10 1004.5 1004.3 0.0
14/02:00pm 25.6 27.6 19.9 70 3.7 ENE 9 19 5 10 1004.4 1004.2 0.0
14/01:30pm 25.9 27.8 20.5 72 3.5 E 11 17 6 9 1004.5 1004.3 0.0
14/01:00pm 25.3 26.8 19.7 71 3.6 E 11 19 6 10 1004.4 1004.2 0.0
14/12:30pm 25.4 27.0 20.0 72 3.5 E 11 17 6 9 1004.3 1004.1 0.0
14/12:00pm 25.1 26.7 19.9 73 3.4 ESE 11 15 6 8 1004.3 1004.1 0.0
14/11:30am 24.1 26.5 19.6 76 2.9 S 6 9 3 5 1004.2 1004.0 0.0
14/11:00am 23.7 25.5 18.8 74 3.1 S 7 13 4 7 1004.2 1004.0 0.0
14/10:30am 23.2 24.5 18.5 75 3.0 S 9 13 5 7 1004.0 1003.8 0.0
14/10:00am 23.3 23.8 19.2 78 2.6 S 15 17 8 9 1004.2 1004.0 0.0
14/09:30am 22.8 24.3 18.8 78 2.5 S 9 11 5 6 1004.2 1004.0 0.0
14/09:00am 21.8 23.4 19.2 85 1.7 SSW 9 17 5 9 1004.3 1004.1 0.0
14/08:30am 21.3 22.8 18.9 86 1.5 S 9 13 5 7 1003.7 1003.5 0.0
14/08:00am 21.3 22.2 19.2 88 1.3 SSW 13 20 7 11 1003.6 1003.4 0.0
14/07:30am 21.6 22.2 19.5 88 1.3 SSW 15 22 8 12 1003.4 1003.2 0.0
14/07:00am 21.8 21.9 19.9 89 1.2 SSW 19 30 10 16 1002.7 1002.5 0.0
14/06:30am 21.9 22.5 21.1 95 0.5 SSW 19 28 10 15 1002.4 1002.2 0.0
14/06:00am 22.3 22.4 20.0 87 1.5 SSW 19 33 10 18 1001.9 1001.7 0.0
14/05:30am 22.9 23.2 20.4 86 1.6 SW 19 32 10 17 1001.0 1000.8 0.0
14/05:00am 24.7 24.9 18.6 69 3.9 SW 15 24 8 13 1000.2 1000.0 0.0
14/04:30am 28.1 28.0 17.9 54 6.5 WNW 15 37 8 20 999.5 999.3 0.0
14/04:00am 27.9 29.7 18.3 56 6.2 NW 6 9 3 5 999.2 999.0 0.0
14/03:30am 28.2 29.8 18.3 55 6.3 NNW 7 11 4 6 998.6 998.4 0.0
14/03:00am 28.4 29.7 18.5 55 6.4 NNW 9 13 5 7 998.6 998.4 0.0
14/02:30am 28.3 29.7 18.7 56 6.2 NNW 9 13 5 7 998.9 998.7 0.0
14/02:00am 28.1 29.8 19.3 58 5.7 NNW 9 13 5 7 999.3 999.1 0.0
14/01:30am 27.6 30.3 20.2 64 4.9 NNW 6 9 3 5 999.8 999.6 0.0
14/01:00am 26.6 29.4 20.9 71 3.8 NNW 7 9 4 5 1000.2 1000.0 0.0
14/12:30am 25.1 29.0 21.2 79 2.6 W 2 6 1 3 1000.8 1000.6 0.0
14/12:00am 24.4 27.4 21.3 83 2.1 S 7 11 4 6 1001.2 1001.0 0.0
 
Date/Time
EDT
Temp
°C
App
Temp
°C
Dew
Point
°C
Rel
Hum
%
Delta-T
°C
Wind Press
QNH
hPa
Press
MSL
hPa
Rain since
9am
mm
Dir  Spd
km/h
Gust
km/h
Spd
kts
Gust
kts
13/11:30pm 24.1 26.7 21.2 84 1.9 SSW 9 11 5 6 1001.1 1000.9 0.0
13/11:00pm 24.6 27.8 21.7 84 1.9 SW 7 13 4 7 1001.2 1001.0 0.0
13/10:30pm 24.6 27.4 21.5 83 2.1 SSW 9 13 5 7 1000.9 1000.7 0.0
13/10:00pm 25.0 29.0 21.3 80 2.5 S 2 4 1 2 1000.2 1000.0 0.0

Latest Capital City Observations: Canberra | Sydney | Melbourne | Brisbane | Adelaide | Perth | Hobart | Darwin

Other Formats:

Comma delimited format used in spreadsheet applications
http://www.bom.gov.au/fwo/IDN60903/IDN60903.94938.axf

JavaScript Object Notation format (JSON) in row-major order
http://www.bom.gov.au/fwo/IDN60903/IDN60903.94938.json